sensor_id;sensor_type;location;lat;lon;timestamp;pressure;altitude;pressure_sealevel;temperature;humidity
47154;BME280;32907;41.412;2.164;2022-12-26T00:01:05;101138.94;;;21.76;34.50
47154;BME280;32907;41.412;2.164;2022-12-26T00:03:33;101133.47;;;21.76;34.35
47154;BME280;32907;41.412;2.164;2022-12-26T00:06:01;101127.25;;;21.71;33.81
47154;BME280;32907;41.412;2.164;2022-12-26T00:08:29;101111.44;;;21.68;34.26
47154;BME280;32907;41.412;2.164;2022-12-26T00:10:57;101094.16;;;21.48;34.24
47154;BME280;32907;41.412;2.164;2022-12-26T00:13:25;101133.47;;;21.76;33.92
47154;BME280;32907;41.412;2.164;2022-12-26T00:16:13;101139.75;;;21.77;33.05
47154;BME280;32907;41.412;2.164;2022-12-26T00:18:43;101122.88;;;21.70;33.57
47154;BME280;32907;41.412;2.164;2022-12-26T00:21:12;100956.91;;;20.61;33.17
47154;BME280;32907;41.412;2.164;2022-12-26T00:23:42;101094.94;;;21.54;33.15
47154;BME280;32907;41.412;2.164;2022-12-26T00:26:17;101120.16;;;21.70;32.99
47154;BME280;32907;41.412;2.164;2022-12-26T00:28:45;101100.34;;;21.59;32.95
47154;BME280;32907;41.412;2.164;2022-12-26T00:31:15;101117.19;;;21.66;33.04
47154;BME280;32907;41.412;2.164;2022-12-26T00:33:43;101119.34;;;21.69;32.67
47154;BME280;32907;41.412;2.164;2022-12-26T00:36:19;101133.69;;;21.80;32.76
47154;BME280;32907;41.412;2.164;2022-12-26T00:38:49;101128.53;;;21.78;32.74
47154;BME280;32907;41.412;2.164;2022-12-26T00:41:19;101120.34;;;21.78;33.30
47154;BME280;32907;41.412;2.164;2022-12-26T00:43:48;101130.44;;;21.78;33.68
47154;BME280;32907;41.412;2.164;2022-12-26T00:46:17;101093.59;;;21.52;33.73
47154;BME280;32907;41.412;2.164;2022-12-26T00:48:45;101113.69;;;21.61;33.75
47154;BME280;32907;41.412;2.164;2022-12-26T00:51:14;101084.13;;;21.44;34.37
47154;BME280;32907;41.412;2.164;2022-12-26T00:53:41;101074.06;;;21.39;34.68
47154;BME280;32907;41.412;2.164;2022-12-26T00:56:10;101132.16;;;21.74;34.92
47154;BME280;32907;41.412;2.164;2022-12-26T00:58:38;101103.94;;;21.55;34.53
47154;BME280;32907;41.412;2.164;2022-12-26T01:03:42;101112.16;;;21.49;34.86
47154;BME280;32907;41.412;2.164;2022-12-26T01:06:11;101108.91;;;21.47;35.26
47154;BME280;32907;41.412;2.164;2022-12-26T01:08:41;101138.44;;;21.69;35.16
47154;BME280;32907;41.412;2.164;2022-12-26T01:11:12;101145.31;;;21.67;34.99
47154;BME280;32907;41.412;2.164;2022-12-26T01:13:40;101131.50;;;21.53;34.95
47154;BME280;32907;41.412;2.164;2022-12-26T01:16:09;101137.47;;;21.55;35.31
47154;BME280;32907;41.412;2.164;2022-12-26T01:18:38;101126.66;;;21.45;35.30
47154;BME280;32907;41.412;2.164;2022-12-26T01:21:07;101145.34;;;21.62;35.29
47154;BME280;32907;41.412;2.164;2022-12-26T01:23:35;101149.75;;;21.58;35.76
47154;BME280;32907;41.412;2.164;2022-12-26T01:26:04;101123.69;;;21.41;35.31
47154;BME280;32907;41.412;2.164;2022-12-26T01:28:50;101102.53;;;21.28;35.66
47154;BME280;32907;41.412;2.164;2022-12-26T01:31:21;101149.22;;;21.56;35.26
47154;BME280;32907;41.412;2.164;2022-12-26T01:33:49;101143.84;;;21.45;35.68
47154;BME280;32907;41.412;2.164;2022-12-26T01:36:17;101156.59;;;21.55;35.41
47154;BME280;32907;41.412;2.164;2022-12-26T01:38:45;101096.88;;;21.14;35.33
47154;BME280;32907;41.412;2.164;2022-12-26T01:41:14;101164.25;;;21.53;35.51
47154;BME280;32907;41.412;2.164;2022-12-26T01:46:20;101108.31;;;21.16;36.25
47154;BME280;32907;41.412;2.164;2022-12-26T01:48:50;101170.56;;;21.48;35.91
47154;BME280;32907;41.412;2.164;2022-12-26T01:51:20;101108.88;;;21.13;36.05
47154;BME280;32907;41.412;2.164;2022-12-26T01:53:51;101162.44;;;21.43;35.62
47154;BME280;32907;41.412;2.164;2022-12-26T01:56:42;101150.75;;;21.33;35.59
47154;BME280;32907;41.412;2.164;2022-12-26T01:59:19;101147.28;;;21.27;35.70
47154;BME280;32907;41.412;2.164;2022-12-26T02:01:50;101156.78;;;21.30;35.64
47154;BME280;32907;41.412;2.164;2022-12-26T02:04:31;101185.28;;;21.47;35.15
47154;BME280;32907;41.412;2.164;2022-12-26T02:07:20;101186.91;;;21.48;35.23
47154;BME280;32907;41.412;2.164;2022-12-26T02:09:49;101170.16;;;21.31;34.99
47154;BME280;32907;41.412;2.164;2022-12-26T02:12:30;101096.00;;;20.85;34.86
47154;BME280;32907;41.412;2.164;2022-12-26T02:15:14;101192.44;;;21.43;35.22
47154;BME280;32907;41.412;2.164;2022-12-26T02:17:42;101198.72;;;21.44;35.41
47154;BME280;32907;41.412;2.164;2022-12-26T02:20:20;101144.06;;;21.15;35.53
47154;BME280;32907;41.412;2.164;2022-12-26T02:25:24;101190.53;;;21.44;34.72
47154;BME280;32907;41.412;2.164;2022-12-26T02:28:27;101187.50;;;21.45;34.80
47154;BME280;32907;41.412;2.164;2022-12-26T02:31:13;101190.22;;;21.45;34.67
47154;BME280;32907;41.412;2.164;2022-12-26T02:36:36;101197.31;;;21.46;34.52
47154;BME280;32907;41.412;2.164;2022-12-26T02:45:32;101206.09;;;21.43;35.34
47154;BME280;32907;41.412;2.164;2022-12-26T02:48:54;101213.72;;;21.41;35.21
47154;BME280;32907;41.412;2.164;2022-12-26T02:57:22;101163.19;;;21.10;36.22
47154;BME280;32907;41.412;2.164;2022-12-26T03:00:16;101202.34;;;21.34;35.65
47154;BME280;32907;41.412;2.164;2022-12-26T03:03:14;101191.97;;;21.31;35.39
47154;BME280;32907;41.412;2.164;2022-12-26T03:06:10;101199.63;;;21.24;35.82
47154;BME280;32907;41.412;2.164;2022-12-26T03:09:05;101197.44;;;21.26;35.82
47154;BME280;32907;41.412;2.164;2022-12-26T03:12:06;101195.53;;;21.27;35.18
47154;BME280;32907;41.412;2.164;2022-12-26T03:14:57;101202.13;;;21.20;36.00
47154;BME280;32907;41.412;2.164;2022-12-26T03:17:31;101210.84;;;21.28;36.63
47154;BME280;32907;41.412;2.164;2022-12-26T03:20:05;101205.63;;;21.26;36.29
47154;BME280;32907;41.412;2.164;2022-12-26T03:22:54;101199.09;;;21.22;35.98
47154;BME280;32907;41.412;2.164;2022-12-26T03:25:35;101204.81;;;21.26;35.91
47154;BME280;32907;41.412;2.164;2022-12-26T03:28:25;101195.28;;;21.28;36.35
47154;BME280;32907;41.412;2.164;2022-12-26T03:30:55;101186.56;;;21.21;36.52
47154;BME280;32907;41.412;2.164;2022-12-26T03:33:27;101190.34;;;21.25;36.37
47154;BME280;32907;41.412;2.164;2022-12-26T03:37:17;101194.72;;;21.26;36.29
47154;BME280;32907;41.412;2.164;2022-12-26T03:42:35;101194.16;;;21.24;36.44
47154;BME280;32907;41.412;2.164;2022-12-26T03:45:35;101193.66;;;21.22;36.45
47154;BME280;32907;41.412;2.164;2022-12-26T03:52:01;101176.25;;;21.13;35.67
47154;BME280;32907;41.412;2.164;2022-12-26T04:01:05;101170.91;;;20.98;36.01
47154;BME280;32907;41.412;2.164;2022-12-26T04:03:55;101168.16;;;20.98;35.90
47154;BME280;32907;41.412;2.164;2022-12-26T04:06:53;101198.06;;;21.13;36.05
47154;BME280;32907;41.412;2.164;2022-12-26T04:12:53;101161.41;;;20.85;35.85
47154;BME280;32907;41.412;2.164;2022-12-26T04:15:52;101200.78;;;21.13;35.89
47154;BME280;32907;41.412;2.164;2022-12-26T04:21:44;101196.50;;;21.02;36.40
47154;BME280;32907;41.412;2.164;2022-12-26T04:24:36;101136.19;;;20.64;36.31
47154;BME280;32907;41.412;2.164;2022-12-26T04:27:25;101131.28;;;20.61;36.24
47154;BME280;32907;41.412;2.164;2022-12-26T04:30:13;101142.69;;;20.73;36.35
47154;BME280;32907;41.412;2.164;2022-12-26T04:33:16;101185.91;;;20.95;36.21
47154;BME280;32907;41.412;2.164;2022-12-26T04:36:09;101202.50;;;21.04;36.26
47154;BME280;32907;41.412;2.164;2022-12-26T04:39:01;101191.06;;;20.97;35.82
47154;BME280;32907;41.412;2.164;2022-12-26T04:41:52;101216.06;;;21.09;35.87
47154;BME280;32907;41.412;2.164;2022-12-26T04:44:40;101188.66;;;20.90;35.75
47154;BME280;32907;41.412;2.164;2022-12-26T04:47:09;101218.84;;;21.04;35.88
47154;BME280;32907;41.412;2.164;2022-12-26T04:49:42;101213.41;;;21.04;35.92
47154;BME280;32907;41.412;2.164;2022-12-26T04:52:29;101197.13;;;20.88;35.74
47154;BME280;32907;41.412;2.164;2022-12-26T04:55:17;101226.50;;;21.02;35.72
47154;BME280;32907;41.412;2.164;2022-12-26T04:57:45;101214.22;;;21.04;35.87
47154;BME280;32907;41.412;2.164;2022-12-26T05:00:13;101194.91;;;20.90;36.04
47154;BME280;32907;41.412;2.164;2022-12-26T05:02:41;101220.47;;;21.05;36.05
47154;BME280;32907;41.412;2.164;2022-12-26T05:05:37;101174.81;;;20.76;35.81
47154;BME280;32907;41.412;2.164;2022-12-26T05:08:43;101190.59;;;20.84;35.99
47154;BME280;32907;41.412;2.164;2022-12-26T05:11:33;101222.09;;;21.06;36.08
47154;BME280;32907;41.412;2.164;2022-12-26T05:14:02;101194.97;;;20.80;36.09
47154;BME280;32907;41.412;2.164;2022-12-26T05:16:29;101158.28;;;20.57;36.03
47154;BME280;32907;41.412;2.164;2022-12-26T05:19:16;101235.75;;;21.06;36.04
47154;BME280;32907;41.412;2.164;2022-12-26T05:22:04;101203.16;;;20.80;36.31
47154;BME280;32907;41.412;2.164;2022-12-26T05:24:51;101214.88;;;20.86;36.78
47154;BME280;32907;41.412;2.164;2022-12-26T05:27:40;101239.88;;;20.98;36.76
47154;BME280;32907;41.412;2.164;2022-12-26T05:30:28;101249.94;;;21.03;36.94
47154;BME280;32907;41.412;2.164;2022-12-26T05:32:57;101237.72;;;20.95;37.07
47154;BME280;32907;41.412;2.164;2022-12-26T05:35:44;101244.03;;;20.85;36.96
47154;BME280;32907;41.412;2.164;2022-12-26T05:38:13;101226.06;;;20.79;36.73
47154;BME280;32907;41.412;2.164;2022-12-26T05:40:41;101216.28;;;20.73;37.13
47154;BME280;32907;41.412;2.164;2022-12-26T05:43:09;101233.44;;;20.79;36.92
47154;BME280;32907;41.412;2.164;2022-12-26T05:45:37;101219.81;;;20.68;36.90
47154;BME280;32907;41.412;2.164;2022-12-26T05:48:05;101230.97;;;20.77;36.66
47154;BME280;32907;41.412;2.164;2022-12-26T05:50:33;101269.88;;;20.93;37.01
47154;BME280;32907;41.412;2.164;2022-12-26T05:53:01;101204.38;;;20.54;37.01
47154;BME280;32907;41.412;2.164;2022-12-26T05:55:30;101243.50;;;20.78;37.29
47154;BME280;32907;41.412;2.164;2022-12-26T05:58:00;101195.91;;;20.55;37.17
47154;BME280;32907;41.412;2.164;2022-12-26T06:00:28;101238.59;;;20.75;37.22
47154;BME280;32907;41.412;2.164;2022-12-26T06:03:00;101261.97;;;20.91;37.32
47154;BME280;32907;41.412;2.164;2022-12-26T06:05:29;101253.28;;;20.84;37.35
47154;BME280;32907;41.412;2.164;2022-12-26T06:07:57;101256.56;;;20.86;37.64
47154;BME280;32907;41.412;2.164;2022-12-26T06:10:25;101275.59;;;21.02;37.31
47154;BME280;32907;41.412;2.164;2022-12-26T06:12:56;101226.63;;;20.71;37.55
47154;BME280;32907;41.412;2.164;2022-12-26T06:15:24;101279.94;;;21.03;37.51
47154;BME280;32907;41.412;2.164;2022-12-26T06:17:53;101284.28;;;21.04;37.23
47154;BME280;32907;41.412;2.164;2022-12-26T06:20:22;101203.81;;;20.52;37.38
47154;BME280;32907;41.412;2.164;2022-12-26T06:22:50;101265.81;;;20.90;36.86
47154;BME280;32907;41.412;2.164;2022-12-26T06:25:17;101292.75;;;21.02;36.90
47154;BME280;32907;41.412;2.164;2022-12-26T06:27:45;101287.59;;;20.95;36.92
47154;BME280;32907;41.412;2.164;2022-12-26T06:30:13;101280.28;;;20.86;37.17
47154;BME280;32907;41.412;2.164;2022-12-26T06:32:41;101190.25;;;20.31;36.90
47154;BME280;32907;41.412;2.164;2022-12-26T06:35:09;101288.94;;;20.93;36.75
47154;BME280;32907;41.412;2.164;2022-12-26T06:37:37;101305.84;;;21.00;36.75
47154;BME280;32907;41.412;2.164;2022-12-26T06:40:06;101248.22;;;20.62;37.01
47154;BME280;32907;41.412;2.164;2022-12-26T06:42:34;101263.69;;;20.72;36.42
47154;BME280;32907;41.412;2.164;2022-12-26T06:45:02;101303.38;;;20.99;36.70
47154;BME280;32907;41.412;2.164;2022-12-26T06:47:31;101281.38;;;20.80;36.76
47154;BME280;32907;41.412;2.164;2022-12-26T06:49:58;101303.97;;;20.95;36.36
47154;BME280;32907;41.412;2.164;2022-12-26T06:52:26;101306.16;;;20.93;36.59
47154;BME280;32907;41.412;2.164;2022-12-26T06:54:54;101301.00;;;20.87;36.62
47154;BME280;32907;41.412;2.164;2022-12-26T06:57:22;101279.78;;;20.74;36.60
47154;BME280;32907;41.412;2.164;2022-12-26T06:59:50;101266.72;;;20.65;36.46
47154;BME280;32907;41.412;2.164;2022-12-26T07:02:18;101273.53;;;20.63;36.62
47154;BME280;32907;41.412;2.164;2022-12-26T07:04:46;101269.72;;;20.64;36.67
47154;BME280;32907;41.412;2.164;2022-12-26T07:07:14;101286.56;;;20.76;36.44
47154;BME280;32907;41.412;2.164;2022-12-26T07:09:42;101289.84;;;20.78;36.11
47154;BME280;32907;41.412;2.164;2022-12-26T07:12:10;101233.81;;;20.47;36.12
47154;BME280;32907;41.412;2.164;2022-12-26T07:14:39;101311.84;;;20.97;35.72
47154;BME280;32907;41.412;2.164;2022-12-26T07:17:08;101262.91;;;20.66;36.15
47154;BME280;32907;41.412;2.164;2022-12-26T07:19:36;101318.38;;;21.01;36.78
47154;BME280;32907;41.412;2.164;2022-12-26T07:22:04;101238.13;;;20.58;36.39
47154;BME280;32907;41.412;2.164;2022-12-26T07:24:32;101321.91;;;21.07;35.96
47154;BME280;32907;41.412;2.164;2022-12-26T07:27:00;101303.38;;;20.99;36.56
47154;BME280;32907;41.412;2.164;2022-12-26T07:29:28;101268.63;;;20.65;36.77
47154;BME280;32907;41.412;2.164;2022-12-26T07:31:55;101303.69;;;20.92;36.16
47154;BME280;32907;41.412;2.164;2022-12-26T07:34:25;101307.78;;;20.94;36.65
47154;BME280;32907;41.412;2.164;2022-12-26T07:36:59;101313.25;;;20.94;36.78
47154;BME280;32907;41.412;2.164;2022-12-26T07:39:27;101338.22;;;21.17;42.76
47154;BME280;32907;41.412;2.164;2022-12-26T07:41:55;101340.94;;;21.17;37.44
47154;BME280;32907;41.412;2.164;2022-12-26T07:44:27;101332.50;;;21.18;36.47
47154;BME280;32907;41.412;2.164;2022-12-26T07:46:57;101339.84;;;21.23;37.07
47154;BME280;32907;41.412;2.164;2022-12-26T07:49:25;101346.41;;;21.27;36.78
47154;BME280;32907;41.412;2.164;2022-12-26T07:51:54;101349.66;;;21.24;37.36
47154;BME280;32907;41.412;2.164;2022-12-26T07:54:22;101347.47;;;21.26;37.30
47154;BME280;32907;41.412;2.164;2022-12-26T07:56:50;101340.41;;;21.20;37.51
47154;BME280;32907;41.412;2.164;2022-12-26T07:59:18;101314.56;;;21.02;37.21
47154;BME280;32907;41.412;2.164;2022-12-26T08:01:47;101275.13;;;20.79;36.96
47154;BME280;32907;41.412;2.164;2022-12-26T08:04:15;101366.03;;;21.34;36.79
47154;BME280;32907;41.412;2.164;2022-12-26T08:06:44;101350.47;;;21.24;37.07
47154;BME280;32907;41.412;2.164;2022-12-26T08:09:14;101376.66;;;21.31;37.36
47154;BME280;32907;41.412;2.164;2022-12-26T08:11:43;101345.59;;;21.16;37.34
47154;BME280;32907;41.412;2.164;2022-12-26T08:14:13;101372.00;;;21.31;37.20
47154;BME280;32907;41.412;2.164;2022-12-26T08:16:43;101361.38;;;21.24;36.99
47154;BME280;32907;41.412;2.164;2022-12-26T08:19:19;101356.28;;;21.03;36.97
47154;BME280;32907;41.412;2.164;2022-12-26T08:21:47;101368.78;;;21.19;37.02
47154;BME280;32907;41.412;2.164;2022-12-26T08:24:15;101338.84;;;20.99;37.14
47154;BME280;32907;41.412;2.164;2022-12-26T08:26:43;101354.09;;;21.10;37.10
47154;BME280;32907;41.412;2.164;2022-12-26T08:29:11;101342.09;;;21.01;37.17
47154;BME280;32907;41.412;2.164;2022-12-26T08:31:39;101391.13;;;21.31;36.50
47154;BME280;32907;41.412;2.164;2022-12-26T08:34:07;101390.00;;;21.32;37.10
47154;BME280;32907;41.412;2.164;2022-12-26T08:36:36;101354.09;;;21.00;36.84
47154;BME280;32907;41.412;2.164;2022-12-26T08:39:04;101398.75;;;21.34;37.17
47154;BME280;32907;41.412;2.164;2022-12-26T08:41:32;101406.13;;;21.34;37.11
47154;BME280;32907;41.412;2.164;2022-12-26T08:44:00;101407.19;;;21.33;36.95
47154;BME280;32907;41.412;2.164;2022-12-26T08:46:50;101355.75;;;20.95;36.98
47154;BME280;32907;41.412;2.164;2022-12-26T08:49:18;101381.88;;;21.12;36.89
47154;BME280;32907;41.412;2.164;2022-12-26T08:51:47;101379.94;;;21.17;36.95
47154;BME280;32907;41.412;2.164;2022-12-26T08:54:15;101380.22;;;21.16;37.20
47154;BME280;32907;41.412;2.164;2022-12-26T08:56:43;101428.19;;;21.42;36.86
47154;BME280;32907;41.412;2.164;2022-12-26T08:59:11;101414.03;;;21.35;36.72
47154;BME280;32907;41.412;2.164;2022-12-26T09:01:39;101411.88;;;21.27;36.96
47154;BME280;32907;41.412;2.164;2022-12-26T09:04:08;101405.03;;;21.30;37.09
47154;BME280;32907;41.412;2.164;2022-12-26T09:06:37;101428.19;;;21.42;36.98
47154;BME280;32907;41.412;2.164;2022-12-26T09:09:07;101435.28;;;21.38;36.81
47154;BME280;32907;41.412;2.164;2022-12-26T09:11:39;101439.09;;;21.42;36.75
47154;BME280;32907;41.412;2.164;2022-12-26T09:14:08;101412.66;;;21.33;36.69
47154;BME280;32907;41.412;2.164;2022-12-26T09:16:41;101377.28;;;20.97;36.80
47154;BME280;32907;41.412;2.164;2022-12-26T09:19:17;101350.88;;;20.87;36.74
47154;BME280;32907;41.412;2.164;2022-12-26T09:21:47;101411.59;;;21.29;36.68
47154;BME280;32907;41.412;2.164;2022-12-26T09:24:17;101423.00;;;21.41;36.95
47154;BME280;32907;41.412;2.164;2022-12-26T09:26:45;101424.38;;;21.38;37.19
47154;BME280;32907;41.412;2.164;2022-12-26T09:29:14;101450.78;;;21.58;37.23
47154;BME280;32907;41.412;2.164;2022-12-26T09:31:42;101428.19;;;21.42;37.31
47154;BME280;32907;41.412;2.164;2022-12-26T09:34:10;101459.47;;;21.65;36.79
47154;BME280;32907;41.412;2.164;2022-12-26T09:36:38;101454.31;;;21.59;37.01
47154;BME280;32907;41.412;2.164;2022-12-26T09:39:07;101459.22;;;21.62;37.02
47154;BME280;32907;41.412;2.164;2022-12-26T09:49:24;101491.34;;;21.80;38.39
47154;BME280;32907;41.412;2.164;2022-12-26T09:51:56;101483.41;;;21.84;37.90
47154;BME280;32907;41.412;2.164;2022-12-26T09:54:37;101494.59;;;21.87;36.88
47154;BME280;32907;41.412;2.164;2022-12-26T09:57:19;101491.91;;;21.82;35.63
47154;BME280;32907;41.412;2.164;2022-12-26T09:59:58;101503.31;;;21.89;35.30
47154;BME280;32907;41.412;2.164;2022-12-26T10:02:28;101461.38;;;21.65;34.46
47154;BME280;32907;41.412;2.164;2022-12-26T10:04:56;101467.38;;;21.67;34.00
47154;BME280;32907;41.412;2.164;2022-12-26T10:07:34;101487.56;;;21.76;34.49
47154;BME280;32907;41.412;2.164;2022-12-26T10:10:31;101502.22;;;21.90;33.68
47154;BME280;32907;41.412;2.164;2022-12-26T10:13:27;101510.09;;;21.97;33.83
47154;BME280;32907;41.412;2.164;2022-12-26T10:16:07;101510.91;;;21.97;34.42
47154;BME280;32907;41.412;2.164;2022-12-26T10:19:01;101500.84;;;21.98;34.70
47154;BME280;32907;41.412;2.164;2022-12-26T10:24:21;101508.75;;;21.99;34.24
47154;BME280;32907;41.412;2.164;2022-12-26T10:26:56;101485.28;;;21.93;34.41
47154;BME280;32907;41.412;2.164;2022-12-26T10:29:32;101480.66;;;21.89;35.71
47154;BME280;32907;41.412;2.164;2022-12-26T10:32:28;101464.88;;;21.75;37.06
47154;BME280;32907;41.412;2.164;2022-12-26T10:34:54;101486.38;;;21.92;37.49
47154;BME280;32907;41.412;2.164;2022-12-26T10:37:33;101496.72;;;22.00;36.29
47154;BME280;32907;41.412;2.164;2022-12-26T10:42:55;101497.50;;;22.11;35.60
47154;BME280;32907;41.412;2.164;2022-12-26T10:45:34;101453.38;;;21.84;35.33
47154;BME280;32907;41.412;2.164;2022-12-26T10:48:04;101504.56;;;22.17;34.60
47154;BME280;32907;41.412;2.164;2022-12-26T10:50:33;101508.34;;;22.26;34.70
47154;BME280;32907;41.412;2.164;2022-12-26T10:53:05;101506.41;;;22.27;35.42
47154;BME280;32907;41.412;2.164;2022-12-26T10:55:34;101467.47;;;22.06;35.36
47154;BME280;32907;41.412;2.164;2022-12-26T10:58:06;101514.00;;;22.40;38.67
47154;BME280;32907;41.412;2.164;2022-12-26T11:00:39;101510.13;;;22.46;38.05
47154;BME280;32907;41.412;2.164;2022-12-26T11:03:13;101512.28;;;22.49;37.10
47154;BME280;32907;41.412;2.164;2022-12-26T11:05:51;101484.75;;;22.41;40.17
47154;BME280;32907;41.412;2.164;2022-12-26T11:08:39;101494.22;;;22.53;45.62
47154;BME280;32907;41.412;2.164;2022-12-26T11:11:26;101467.25;;;22.42;40.41
47154;BME280;32907;41.412;2.164;2022-12-26T11:14:40;101503.97;;;22.65;43.91
47154;BME280;32907;41.412;2.164;2022-12-26T11:17:23;101488.13;;;22.61;41.57
47154;BME280;32907;41.412;2.164;2022-12-26T11:22:42;101501.78;;;22.67;38.45
47154;BME280;32907;41.412;2.164;2022-12-26T11:25:22;101495.53;;;22.61;35.48
47154;BME280;32907;41.412;2.164;2022-12-26T11:27:54;101486.06;;;22.48;35.57
47154;BME280;32907;41.412;2.164;2022-12-26T11:30:28;101476.78;;;22.44;35.80
47154;BME280;32907;41.412;2.164;2022-12-26T11:33:09;101429.50;;;22.10;36.50
47154;BME280;32907;41.412;2.164;2022-12-26T11:46:50;101475.03;;;22.58;40.28
47154;BME280;32907;41.412;2.164;2022-12-26T11:49:34;101462.47;;;22.57;40.66
47154;BME280;32907;41.412;2.164;2022-12-26T11:57:56;101465.72;;;22.65;42.21
47154;BME280;32907;41.412;2.164;2022-12-26T12:00:25;101398.81;;;22.23;40.67
47154;BME280;32907;41.412;2.164;2022-12-26T12:02:54;101447.47;;;22.55;39.55
47154;BME280;32907;41.412;2.164;2022-12-26T12:16:13;101448.22;;;22.60;39.58
47154;BME280;32907;41.412;2.164;2022-12-26T12:19:27;101452.38;;;22.58;39.23
47154;BME280;32907;41.412;2.164;2022-12-26T12:22:30;101331.63;;;21.83;39.86
47154;BME280;32907;41.412;2.164;2022-12-26T12:27:53;101433.63;;;22.46;38.46
47154;BME280;32907;41.412;2.164;2022-12-26T12:30:47;101443.38;;;22.52;35.77
47154;BME280;32907;41.412;2.164;2022-12-26T12:57:56;101395.34;;;22.46;42.28
47154;BME280;32907;41.412;2.164;2022-12-26T13:00:33;101439.66;;;22.72;42.70
47154;BME280;32907;41.412;2.164;2022-12-26T13:05:44;101432.81;;;22.75;41.63
47154;BME280;32907;41.412;2.164;2022-12-26T13:08:18;101373.25;;;22.38;40.51
47154;BME280;32907;41.412;2.164;2022-12-26T13:10:56;101422.44;;;22.72;40.31
47154;BME280;32907;41.412;2.164;2022-12-26T13:13:36;101422.97;;;22.74;40.51
47154;BME280;32907;41.412;2.164;2022-12-26T13:16:15;101397.91;;;22.61;40.67
47154;BME280;32907;41.412;2.164;2022-12-26T13:19:03;101419.72;;;22.72;40.02
47154;BME280;32907;41.412;2.164;2022-12-26T13:21:37;101413.69;;;22.70;39.89
47154;BME280;32907;41.412;2.164;2022-12-26T13:29:45;101424.59;;;22.75;39.82
47154;BME280;32907;41.412;2.164;2022-12-26T13:32:23;101419.09;;;22.80;39.59
47154;BME280;32907;41.412;2.164;2022-12-26T13:34:58;101406.59;;;22.69;39.31
47154;BME280;32907;41.412;2.164;2022-12-26T13:43:00;101419.44;;;22.73;39.61
47154;BME280;32907;41.412;2.164;2022-12-26T13:45:51;101421.38;;;22.68;39.51
47154;BME280;32907;41.412;2.164;2022-12-26T13:51:01;101418.72;;;22.63;39.57
47154;BME280;32907;41.412;2.164;2022-12-26T13:53:33;101419.25;;;22.59;39.32
47154;BME280;32907;41.412;2.164;2022-12-26T13:56:46;101404.88;;;22.49;39.39
47154;BME280;32907;41.412;2.164;2022-12-26T13:59:12;101417.34;;;22.60;39.05
47154;BME280;32907;41.412;2.164;2022-12-26T14:08:01;101428.56;;;22.58;38.99
47154;BME280;32907;41.412;2.164;2022-12-26T14:13:48;101426.94;;;22.57;39.79
47154;BME280;32907;41.412;2.164;2022-12-26T14:20:16;101428.56;;;22.58;38.09
47154;BME280;32907;41.412;2.164;2022-12-26T14:28:28;101437.84;;;22.63;38.98
47154;BME280;32907;41.412;2.164;2022-12-26T14:37:34;101431.34;;;22.53;39.53
47154;BME280;32907;41.412;2.164;2022-12-26T14:40:37;101449.63;;;22.58;39.59
47154;BME280;32907;41.412;2.164;2022-12-26T14:43:30;101447.19;;;22.56;39.39
47154;BME280;32907;41.412;2.164;2022-12-26T14:45:59;101437.69;;;22.49;39.57
47154;BME280;32907;41.412;2.164;2022-12-26T14:53:33;101460.28;;;22.59;40.14
47154;BME280;32907;41.412;2.164;2022-12-26T14:56:31;101460.84;;;22.56;40.08
47154;BME280;32907;41.412;2.164;2022-12-26T14:59:29;101463.59;;;22.56;40.30
47154;BME280;32907;41.412;2.164;2022-12-26T15:02:10;101432.03;;;22.35;40.52
47154;BME280;32907;41.412;2.164;2022-12-26T15:05:13;101463.31;;;22.53;40.26
47154;BME280;32907;41.412;2.164;2022-12-26T15:08:22;101470.44;;;22.54;40.67
47154;BME280;32907;41.412;2.164;2022-12-26T15:19:49;101477.53;;;22.55;40.49
47154;BME280;32907;41.412;2.164;2022-12-26T15:33:37;101480.63;;;22.43;40.46
47154;BME280;32907;41.412;2.164;2022-12-26T15:39:28;101492.59;;;22.52;39.90
47154;BME280;32907;41.412;2.164;2022-12-26T15:42:23;101480.94;;;22.37;39.17
47154;BME280;32907;41.412;2.164;2022-12-26T15:45:56;101499.44;;;22.50;39.39
47154;BME280;32907;41.412;2.164;2022-12-26T15:51:19;101513.69;;;22.47;38.83
47154;BME280;32907;41.412;2.164;2022-12-26T15:56:49;101518.06;;;22.48;38.93
47154;BME280;32907;41.412;2.164;2022-12-26T16:02:30;101502.56;;;22.33;38.93
47154;BME280;32907;41.412;2.164;2022-12-26T16:07:41;101521.59;;;22.48;39.00
47154;BME280;32907;41.412;2.164;2022-12-26T16:12:56;101523.50;;;22.48;38.85
47154;BME280;32907;41.412;2.164;2022-12-26T16:15:25;101522.47;;;22.39;38.96
47154;BME280;32907;41.412;2.164;2022-12-26T16:18:11;101522.72;;;22.42;38.40
47154;BME280;32907;41.412;2.164;2022-12-26T16:20:40;101525.16;;;22.49;38.61
47154;BME280;32907;41.412;2.164;2022-12-26T16:23:29;101507.22;;;22.32;38.69
47154;BME280;32907;41.412;2.164;2022-12-26T16:25:59;101527.94;;;22.39;38.82
47154;BME280;32907;41.412;2.164;2022-12-26T16:28:40;101544.56;;;22.47;38.70
47154;BME280;32907;41.412;2.164;2022-12-26T16:31:17;101547.00;;;22.49;38.20
47154;BME280;32907;41.412;2.164;2022-12-26T16:33:46;101502.66;;;22.18;38.47
47154;BME280;32907;41.412;2.164;2022-12-26T16:36:21;101477.59;;;22.00;38.52
47154;BME280;32907;41.412;2.164;2022-12-26T16:38:54;101548.41;;;22.41;38.47
47154;BME280;32907;41.412;2.164;2022-12-26T16:41:25;101564.50;;;22.48;38.61
47154;BME280;32907;41.412;2.164;2022-12-26T16:43:55;101514.69;;;22.17;39.70
47154;BME280;32907;41.412;2.164;2022-12-26T16:46:27;101543.56;;;22.28;40.29
47154;BME280;32907;41.412;2.164;2022-12-26T16:48:58;101583.66;;;22.43;40.97
47154;BME280;32907;41.412;2.164;2022-12-26T16:54:37;101574.19;;;22.30;44.22
47154;BME280;32907;41.412;2.164;2022-12-26T16:57:12;101586.09;;;22.44;44.20